Time,TemperatureF,DewpointF,PressureIn,WindDirection,WindDirectionDegrees,WindSpeedMPH,WindSpeedGustMPH,Humidity,HourlyPrecipIn,Conditions,Clouds,dailyrainin,SolarRadiationWatts/m^2,SoftwareType,DateUTC
2013-07-13 00:01:00,64.0,62.0,-100.00,NE,45,2.0,4.0,94,0.00,,,0.01,0.000000,,2013-07-13 04:01:00,
2013-07-13 00:32:00,64.0,62.0,-100.00,NE,45,2.0,4.0,94,0.00,,,0.01,0.000000,,2013-07-13 04:32:00,
2013-07-13 00:44:00,64.0,62.0,-100.00,NE,45,2.0,4.0,94,0.00,,,0.01,0.000000,,2013-07-13 04:44:00,
2013-07-13 00:52:00,64.0,62.0,-100.00,NE,45,2.0,4.0,94,0.00,,,0.01,0.000000,,2013-07-13 04:52:00,
2013-07-13 01:01:00,64.0,62.0,-100.00,ENE,64,1.0,3.0,94,0.00,,,0.01,0.000000,,2013-07-13 05:01:00,
2013-07-13 01:33:00,64.0,62.0,-100.00,ENE,64,1.0,3.0,94,0.00,,,0.01,0.000000,,2013-07-13 05:33:00,
2013-07-13 01:42:00,64.0,62.0,-100.00,ENE,64,1.0,3.0,94,0.00,,,0.01,0.000000,,2013-07-13 05:42:00,
2013-07-13 01:52:00,64.0,62.0,-100.00,ENE,64,1.0,3.0,94,0.00,,,0.01,0.000000,,2013-07-13 05:52:00,
2013-07-13 02:01:00,64.0,62.0,-100.00,NE,38,2.0,3.0,93,0.00,,,0.01,0.000000,,2013-07-13 06:01:00,
2013-07-13 02:32:00,64.0,62.0,-100.00,NE,38,2.0,3.0,93,0.00,,,0.01,0.000000,,2013-07-13 06:32:00,
2013-07-13 02:43:00,64.0,62.0,-100.00,NE,38,2.0,3.0,93,0.00,,,0.01,0.000000,,2013-07-13 06:43:00,
2013-07-13 02:52:00,64.0,62.0,-100.00,NE,38,2.0,3.0,93,0.00,,,0.01,0.000000,,2013-07-13 06:52:00,
2013-07-13 03:01:00,64.0,63.0,-100.00,NE,53,2.0,3.0,95,0.00,,,0.01,0.000000,,2013-07-13 07:01:00,
2013-07-13 03:33:00,64.0,63.0,-100.00,NE,53,2.0,3.0,95,0.00,,,0.01,0.000000,,2013-07-13 07:33:00,
2013-07-13 03:44:00,64.0,63.0,-100.00,NE,53,2.0,3.0,95,0.00,,,0.01,0.000000,,2013-07-13 07:44:00,
2013-07-13 03:53:00,64.0,63.0,-100.00,NE,53,2.0,3.0,95,0.00,,,0.01,0.000000,,2013-07-13 07:53:00,
2013-07-13 04:01:00,63.0,62.0,-100.00,North,9,1.0,4.0,96,0.00,,,0.01,0.000000,,2013-07-13 08:01:00,
2013-07-13 04:22:00,63.0,62.0,-100.00,North,9,1.0,4.0,96,0.00,,,0.01,0.000000,,2013-07-13 08:22:00,
2013-07-13 04:33:00,63.0,62.0,-100.00,North,9,1.0,4.0,96,0.00,,,0.01,0.000000,,2013-07-13 08:33:00,
2013-07-13 04:43:00,63.0,62.0,-100.00,North,9,1.0,4.0,96,0.00,,,0.01,0.000000,,2013-07-13 08:43:00,
2013-07-13 04:52:00,63.0,62.0,-100.00,North,9,1.0,4.0,96,0.00,,,0.01,0.000000,,2013-07-13 08:52:00,
2013-07-13 05:01:00,63.0,62.0,-100.00,NE,41,2.0,4.0,98,0.00,,,0.01,0.000000,,2013-07-13 09:01:00,
2013-07-13 05:33:00,63.0,62.0,-100.00,NE,41,2.0,4.0,98,0.00,,,0.01,0.000000,,2013-07-13 09:33:00,
2013-07-13 05:43:00,63.0,62.0,-100.00,NE,41,2.0,4.0,98,0.00,,,0.01,0.000000,,2013-07-13 09:43:00,
2013-07-13 05:53:00,63.0,62.0,-100.00,NE,41,2.0,4.0,98,0.00,,,0.01,0.000000,,2013-07-13 09:53:00,
2013-07-13 06:01:00,63.0,62.0,-100.00,ENE,59,1.0,5.0,97,0.00,,,0.01,0.000000,,2013-07-13 10:01:00,
2013-07-13 06:32:00,63.0,62.0,-100.00,ENE,59,1.0,5.0,97,0.00,,,0.01,0.000000,,2013-07-13 10:32:00,
2013-07-13 06:43:00,63.0,62.0,-100.00,ENE,59,1.0,5.0,97,0.00,,,0.01,0.000000,,2013-07-13 10:43:00,
2013-07-13 06:52:00,63.0,62.0,-100.00,ENE,59,1.0,5.0,97,0.00,,,0.01,0.000000,,2013-07-13 10:52:00,
2013-07-13 07:01:00,64.0,63.0,-100.00,NNE,32,1.0,2.0,97,0.00,,,0.01,16.000000,,2013-07-13 11:01:00,
2013-07-13 07:32:00,64.0,63.0,-100.00,NNE,32,1.0,2.0,97,0.00,,,0.01,16.000000,,2013-07-13 11:32:00,
2013-07-13 07:43:00,64.0,63.0,-100.00,NNE,32,1.0,2.0,97,0.00,,,0.01,16.000000,,2013-07-13 11:43:00,
2013-07-13 07:52:00,64.0,63.0,-100.00,NNE,32,1.0,2.0,97,0.00,,,0.01,16.000000,,2013-07-13 11:52:00,
2013-07-13 08:01:00,66.0,65.0,-100.00,NNE,31,2.0,4.0,95,0.00,,,0.01,82.000000,,2013-07-13 12:01:00,
2013-07-13 08:22:00,66.0,65.0,-100.00,NNE,31,2.0,4.0,95,0.00,,,0.01,82.000000,,2013-07-13 12:22:00,
2013-07-13 08:32:00,66.0,65.0,-100.00,NNE,31,2.0,4.0,95,0.00,,,0.01,82.000000,,2013-07-13 12:32:00,
2013-07-13 08:43:00,66.0,65.0,-100.00,NNE,31,2.0,4.0,95,0.00,,,0.01,82.000000,,2013-07-13 12:43:00,
2013-07-13 08:52:00,66.0,65.0,-100.00,NNE,31,2.0,4.0,95,0.00,,,0.01,82.000000,,2013-07-13 12:52:00,
2013-07-13 09:01:00,67.0,64.0,-100.00,NE,45,2.0,4.0,89,0.00,,,0.01,131.000000,,2013-07-13 13:01:00,
2013-07-13 09:32:00,67.0,64.0,-100.00,NE,45,2.0,4.0,89,0.00,,,0.01,131.000000,,2013-07-13 13:32:00,
2013-07-13 09:43:00,67.0,64.0,-100.00,NE,45,2.0,4.0,89,0.00,,,0.01,131.000000,,2013-07-13 13:43:00,
2013-07-13 09:53:00,67.0,64.0,-100.00,NE,45,2.0,4.0,89,0.00,,,0.01,131.000000,,2013-07-13 13:53:00,
2013-07-13 10:01:00,68.0,64.0,-100.00,NE,51,2.0,5.0,86,0.00,,,0.01,176.000000,,2013-07-13 14:01:00,
2013-07-13 10:33:00,68.0,64.0,-100.00,NE,51,2.0,5.0,86,0.00,,,0.01,176.000000,,2013-07-13 14:33:00,
2013-07-13 10:44:00,68.0,64.0,-100.00,NE,51,2.0,5.0,86,0.00,,,0.01,176.000000,,2013-07-13 14:44:00,
2013-07-13 10:53:00,68.0,64.0,-100.00,NE,51,2.0,5.0,86,0.00,,,0.01,176.000000,,2013-07-13 14:53:00,
2013-07-13 11:01:00,69.0,65.0,-100.00,NNE,28,2.0,6.0,86,0.00,,,0.01,204.000000,,2013-07-13 15:01:00,
2013-07-13 11:33:00,69.0,65.0,-100.00,NNE,28,2.0,6.0,86,0.00,,,0.01,204.000000,,2013-07-13 15:33:00,
2013-07-13 11:43:00,69.0,65.0,-100.00,NNE,28,2.0,6.0,86,0.00,,,0.01,204.000000,,2013-07-13 15:43:00,
2013-07-13 11:53:00,69.0,65.0,-100.00,NNE,28,2.0,6.0,86,0.00,,,0.01,204.000000,,2013-07-13 15:53:00,
2013-07-13 12:01:00,73.0,64.0,-100.00,NNE,32,3.0,7.0,74,0.00,,,0.01,456.000000,,2013-07-13 16:01:00,
2013-07-13 12:33:00,73.0,64.0,-100.00,NNE,32,3.0,7.0,74,0.00,,,0.01,456.000000,,2013-07-13 16:33:00,
2013-07-13 12:43:00,73.0,64.0,-100.00,NNE,32,3.0,7.0,74,0.00,,,0.01,456.000000,,2013-07-13 16:43:00,
2013-07-13 12:53:00,73.0,64.0,-100.00,NNE,32,3.0,7.0,74,0.00,,,0.01,456.000000,,2013-07-13 16:53:00,
2013-07-13 13:01:00,74.0,66.0,-100.00,ENE,72,3.0,6.0,77,0.00,,,0.00,451.000000,,2013-07-13 17:01:00,
2013-07-13 13:22:00,74.0,66.0,-100.00,ENE,72,3.0,6.0,77,0.00,,,0.00,451.000000,,2013-07-13 17:22:00,
2013-07-13 13:33:00,74.0,66.0,-100.00,ENE,72,3.0,6.0,77,0.00,,,0.00,451.000000,,2013-07-13 17:33:00,
2013-07-13 13:43:00,74.0,66.0,-100.00,ENE,72,3.0,6.0,77,0.00,,,0.00,451.000000,,2013-07-13 17:43:00,
2013-07-13 13:52:00,74.0,66.0,-100.00,ENE,72,3.0,6.0,77,0.00,,,0.00,451.000000,,2013-07-13 17:52:00,
2013-07-13 14:01:00,74.0,66.0,-100.00,NNW,342,2.0,5.0,75,0.00,,,0.00,383.000000,,2013-07-13 18:01:00,
2013-07-13 14:22:00,74.0,66.0,-100.00,NNW,342,2.0,5.0,75,0.00,,,0.00,383.000000,,2013-07-13 18:22:00,
2013-07-13 14:32:00,74.0,66.0,-100.00,NNW,342,2.0,5.0,75,0.00,,,0.00,383.000000,,2013-07-13 18:32:00,
2013-07-13 14:44:00,74.0,66.0,-100.00,NNW,342,2.0,5.0,75,0.00,,,0.00,383.000000,,2013-07-13 18:44:00,
2013-07-13 14:53:00,74.0,66.0,-100.00,NNW,342,2.0,5.0,75,0.00,,,0.00,383.000000,,2013-07-13 18:53:00,
2013-07-13 15:01:00,77.0,68.0,-100.00,NNE,30,4.0,7.0,74,0.00,,,0.00,506.000000,,2013-07-13 19:01:00,
2013-07-13 15:22:00,77.0,68.0,-100.00,NNE,30,4.0,7.0,74,0.00,,,0.00,506.000000,,2013-07-13 19:22:00,
2013-07-13 15:32:00,77.0,68.0,-100.00,NNE,30,4.0,7.0,74,0.00,,,0.00,506.000000,,2013-07-13 19:32:00,
2013-07-13 15:44:00,77.0,68.0,-100.00,NNE,30,4.0,7.0,74,0.00,,,0.00,506.000000,,2013-07-13 19:44:00,
2013-07-13 15:52:00,77.0,68.0,-100.00,NNE,30,4.0,7.0,74,0.00,,,0.00,506.000000,,2013-07-13 19:52:00,
2013-07-13 16:01:00,77.0,65.0,-100.00,SE,124,2.0,8.0,67,0.00,,,0.00,489.000000,,2013-07-13 20:01:00,
2013-07-13 16:33:00,77.0,65.0,-100.00,SE,124,2.0,8.0,67,0.00,,,0.00,489.000000,,2013-07-13 20:33:00,
2013-07-13 16:43:00,77.0,65.0,-100.00,SE,124,2.0,8.0,67,0.00,,,0.00,489.000000,,2013-07-13 20:43:00,
2013-07-13 16:53:00,77.0,65.0,-100.00,SE,124,2.0,8.0,67,0.00,,,0.00,489.000000,,2013-07-13 20:53:00,
2013-07-13 17:01:00,75.0,67.0,-100.00,NNE,31,2.0,5.0,75,0.00,,,0.00,257.000000,,2013-07-13 21:01:00,
2013-07-13 17:22:00,75.0,67.0,-100.00,NNE,31,2.0,5.0,75,0.00,,,0.00,257.000000,,2013-07-13 21:22:00,
2013-07-13 17:32:00,75.0,67.0,-100.00,NNE,31,2.0,5.0,75,0.00,,,0.00,257.000000,,2013-07-13 21:32:00,
2013-07-13 17:43:00,75.0,67.0,-100.00,NNE,31,2.0,5.0,75,0.00,,,0.00,257.000000,,2013-07-13 21:43:00,
2013-07-13 17:53:00,75.0,67.0,-100.00,NNE,31,2.0,5.0,75,0.00,,,0.00,257.000000,,2013-07-13 21:53:00,
2013-07-13 18:01:00,74.0,66.0,-100.00,NNE,12,2.0,5.0,77,0.00,,,0.00,198.000000,,2013-07-13 22:01:00,
2013-07-13 18:32:00,74.0,66.0,-100.00,NNE,12,2.0,5.0,77,0.00,,,0.00,198.000000,,2013-07-13 22:32:00,
2013-07-13 18:43:00,74.0,66.0,-100.00,NNE,12,2.0,5.0,77,0.00,,,0.00,198.000000,,2013-07-13 22:43:00,
2013-07-13 18:53:00,74.0,66.0,-100.00,NNE,12,2.0,5.0,77,0.00,,,0.00,198.000000,,2013-07-13 22:53:00,
2013-07-13 19:01:00,72.0,68.0,-100.00,NE,34,2.0,5.0,86,0.00,,,0.00,79.000000,,2013-07-13 23:01:00,
2013-07-13 19:22:00,72.0,68.0,-100.00,NE,34,2.0,5.0,86,0.00,,,0.00,79.000000,,2013-07-13 23:22:00,
2013-07-13 19:32:00,72.0,68.0,-100.00,NE,34,2.0,5.0,86,0.00,,,0.00,79.000000,,2013-07-13 23:32:00,
2013-07-13 19:42:00,72.0,68.0,-100.00,NE,34,2.0,5.0,86,0.00,,,0.00,79.000000,,2013-07-13 23:42:00,
2013-07-13 19:53:00,72.0,68.0,-100.00,NE,34,2.0,5.0,86,0.00,,,0.00,79.000000,,2013-07-13 23:53:00,
2013-07-13 20:01:00,71.0,67.0,-100.00,NNE,18,3.0,5.0,87,0.00,,,0.00,31.000000,,2013-07-14 00:01:00,
2013-07-13 20:33:00,71.0,67.0,-100.00,NNE,18,3.0,5.0,87,0.00,,,0.00,31.000000,,2013-07-14 00:33:00,
2013-07-13 20:42:00,71.0,67.0,-100.00,NNE,18,3.0,5.0,87,0.00,,,0.00,31.000000,,2013-07-14 00:42:00,
2013-07-13 20:53:00,71.0,67.0,-100.00,NNE,18,3.0,5.0,87,0.00,,,0.00,31.000000,,2013-07-14 00:53:00,
2013-07-13 21:01:00,69.0,68.0,-100.00,NNE,29,3.0,6.0,95,0.01,,,0.01,7.000000,,2013-07-14 01:01:00,
2013-07-13 21:22:00,69.0,68.0,-100.00,NNE,29,3.0,6.0,95,0.01,,,0.01,7.000000,,2013-07-14 01:22:00,
2013-07-13 21:32:00,69.0,68.0,-100.00,NNE,29,3.0,6.0,95,0.01,,,0.01,7.000000,,2013-07-14 01:32:00,
2013-07-13 21:43:00,69.0,68.0,-100.00,NNE,29,3.0,6.0,95,0.01,,,0.01,7.000000,,2013-07-14 01:43:00,
2013-07-13 21:52:00,69.0,68.0,-100.00,NNE,29,3.0,6.0,95,0.01,,,0.01,7.000000,,2013-07-14 01:52:00,
2013-07-13 22:01:00,69.0,68.0,-100.00,NNE,26,2.0,3.0,98,0.00,,,0.01,0.000000,,2013-07-14 02:01:00,
2013-07-13 22:22:00,69.0,68.0,-100.00,NNE,26,2.0,3.0,98,0.00,,,0.01,0.000000,,2013-07-14 02:22:00,
2013-07-13 22:32:00,69.0,68.0,-100.00,NNE,26,2.0,3.0,98,0.00,,,0.01,0.000000,,2013-07-14 02:32:00,
2013-07-13 22:43:00,69.0,68.0,-100.00,NNE,26,2.0,3.0,98,0.00,,,0.01,0.000000,,2013-07-14 02:43:00,
2013-07-13 22:53:00,69.0,68.0,-100.00,NNE,26,2.0,3.0,98,0.00,,,0.01,0.000000,,2013-07-14 02:53:00,
2013-07-13 23:01:00,69.0,68.0,-100.00,NNW,333,1.0,2.0,98,0.09,,,0.10,0.000000,,2013-07-14 03:01:00,
2013-07-13 23:22:00,69.0,68.0,-100.00,NNW,333,1.0,2.0,98,0.09,,,0.10,0.000000,,2013-07-14 03:22:00,
2013-07-13 23:32:00,69.0,68.0,-100.00,NNW,333,1.0,2.0,98,0.09,,,0.10,0.000000,,2013-07-14 03:32:00,
2013-07-13 23:43:00,69.0,68.0,-100.00,NNW,333,1.0,2.0,98,0.09,,,0.10,0.000000,,2013-07-14 03:43:00,
2013-07-13 23:53:00,69.0,68.0,-100.00,NNW,333,1.0,2.0,98,0.09,,,0.10,0.000000,,2013-07-14 03:53:00,